sensor_id;sensor_type;location;lat;lon;timestamp;P1;durP1;ratioP1;P2;durP2;ratioP2
76167;SDS011;64927;48.214;16.378;2023-07-20T00:02:12;7.05;;;3.88;;
76167;SDS011;64927;48.214;16.378;2023-07-20T00:04:39;5.07;;;4.07;;
76167;SDS011;64927;48.214;16.378;2023-07-20T00:07:04;8.15;;;4.05;;
76167;SDS011;64927;48.214;16.378;2023-07-20T00:09:30;7.15;;;4.25;;
76167;SDS011;64927;48.214;16.378;2023-07-20T00:12:00;5.05;;;3.95;;
76167;SDS011;64927;48.214;16.378;2023-07-20T00:14:26;8.45;;;4.43;;
76167;SDS011;64927;48.214;16.378;2023-07-20T00:16:54;5.65;;;4.13;;
76167;SDS011;64927;48.214;16.378;2023-07-20T00:19:21;6.57;;;4.30;;
76167;SDS011;64927;48.214;16.378;2023-07-20T00:21:51;6.75;;;3.95;;
76167;SDS011;64927;48.214;16.378;2023-07-20T00:24:17;4.72;;;4.05;;
76167;SDS011;64927;48.214;16.378;2023-07-20T00:26:43;7.68;;;4.07;;
76167;SDS011;64927;48.214;16.378;2023-07-20T00:29:09;7.60;;;3.95;;
76167;SDS011;64927;48.214;16.378;2023-07-20T00:31:35;6.28;;;4.35;;
76167;SDS011;64927;48.214;16.378;2023-07-20T00:34:02;6.53;;;4.35;;
76167;SDS011;64927;48.214;16.378;2023-07-20T00:36:28;6.78;;;4.68;;
76167;SDS011;64927;48.214;16.378;2023-07-20T00:38:56;7.90;;;4.75;;
76167;SDS011;64927;48.214;16.378;2023-07-20T00:41:22;7.63;;;4.50;;
76167;SDS011;64927;48.214;16.378;2023-07-20T00:43:47;9.07;;;4.22;;
76167;SDS011;64927;48.214;16.378;2023-07-20T00:46:13;8.27;;;4.40;;
76167;SDS011;64927;48.214;16.378;2023-07-20T00:48:39;6.65;;;4.40;;
76167;SDS011;64927;48.214;16.378;2023-07-20T00:51:06;10.63;;;4.97;;
76167;SDS011;64927;48.214;16.378;2023-07-20T00:53:32;6.25;;;4.47;;
76167;SDS011;64927;48.214;16.378;2023-07-20T00:55:57;6.72;;;4.57;;
76167;SDS011;64927;48.214;16.378;2023-07-20T00:58:26;8.75;;;4.15;;
76167;SDS011;64927;48.214;16.378;2023-07-20T01:00:53;6.43;;;4.78;;
76167;SDS011;64927;48.214;16.378;2023-07-20T01:03:20;7.03;;;4.47;;
76167;SDS011;64927;48.214;16.378;2023-07-20T01:11:09;7.53;;;4.32;;
76167;SDS011;64927;48.214;16.378;2023-07-20T01:13:44;6.78;;;4.07;;
76167;SDS011;64927;48.214;16.378;2023-07-20T01:16:10;10.60;;;4.00;;
76167;SDS011;64927;48.214;16.378;2023-07-20T01:18:35;7.53;;;4.22;;
76167;SDS011;64927;48.214;16.378;2023-07-20T01:21:03;6.18;;;3.80;;
76167;SDS011;64927;48.214;16.378;2023-07-20T01:26:27;6.35;;;3.83;;
76167;SDS011;64927;48.214;16.378;2023-07-20T01:31:59;7.68;;;3.92;;
76167;SDS011;64927;48.214;16.378;2023-07-20T01:34:29;6.32;;;3.58;;
76167;SDS011;64927;48.214;16.378;2023-07-20T01:36:55;9.23;;;4.53;;
76167;SDS011;64927;48.214;16.378;2023-07-20T01:39:22;7.63;;;3.72;;
76167;SDS011;64927;48.214;16.378;2023-07-20T01:41:48;5.15;;;3.80;;
76167;SDS011;64927;48.214;16.378;2023-07-20T01:44:14;7.80;;;4.03;;
76167;SDS011;64927;48.214;16.378;2023-07-20T01:46:40;6.68;;;3.83;;
76167;SDS011;64927;48.214;16.378;2023-07-20T01:49:06;5.55;;;4.03;;
76167;SDS011;64927;48.214;16.378;2023-07-20T01:51:31;5.15;;;3.20;;
76167;SDS011;64927;48.214;16.378;2023-07-20T01:53:57;6.45;;;4.28;;
76167;SDS011;64927;48.214;16.378;2023-07-20T01:56:25;5.28;;;3.78;;
76167;SDS011;64927;48.214;16.378;2023-07-20T01:58:50;6.65;;;4.07;;
76167;SDS011;64927;48.214;16.378;2023-07-20T02:01:16;8.70;;;4.88;;
76167;SDS011;64927;48.214;16.378;2023-07-20T02:03:41;6.03;;;4.10;;
76167;SDS011;64927;48.214;16.378;2023-07-20T02:06:07;7.35;;;3.70;;
76167;SDS011;64927;48.214;16.378;2023-07-20T02:08:33;5.50;;;3.53;;
76167;SDS011;64927;48.214;16.378;2023-07-20T02:10:58;9.30;;;4.10;;
76167;SDS011;64927;48.214;16.378;2023-07-20T02:13:24;7.15;;;4.03;;
76167;SDS011;64927;48.214;16.378;2023-07-20T02:15:49;5.63;;;4.10;;
76167;SDS011;64927;48.214;16.378;2023-07-20T02:18:16;6.10;;;4.38;;
76167;SDS011;64927;48.214;16.378;2023-07-20T02:20:41;7.80;;;4.25;;
76167;SDS011;64927;48.214;16.378;2023-07-20T02:23:07;4.65;;;3.30;;
76167;SDS011;64927;48.214;16.378;2023-07-20T02:25:33;9.02;;;4.43;;
76167;SDS011;64927;48.214;16.378;2023-07-20T02:27:58;8.45;;;3.83;;
76167;SDS011;64927;48.214;16.378;2023-07-20T02:30:24;6.57;;;4.03;;
76167;SDS011;64927;48.214;16.378;2023-07-20T02:32:51;5.75;;;3.85;;
76167;SDS011;64927;48.214;16.378;2023-07-20T02:35:19;5.57;;;4.07;;
76167;SDS011;64927;48.214;16.378;2023-07-20T02:37:46;5.05;;;3.40;;
76167;SDS011;64927;48.214;16.378;2023-07-20T02:40:12;9.20;;;3.92;;
76167;SDS011;64927;48.214;16.378;2023-07-20T02:42:38;7.65;;;3.75;;
76167;SDS011;64927;48.214;16.378;2023-07-20T02:45:04;7.53;;;3.97;;
76167;SDS011;64927;48.214;16.378;2023-07-20T02:47:30;5.18;;;3.35;;
76167;SDS011;64927;48.214;16.378;2023-07-20T02:49:56;6.72;;;3.72;;
76167;SDS011;64927;48.214;16.378;2023-07-20T02:52:24;5.55;;;3.90;;
76167;SDS011;64927;48.214;16.378;2023-07-20T02:54:50;6.90;;;4.68;;
76167;SDS011;64927;48.214;16.378;2023-07-20T02:57:16;7.07;;;4.28;;
76167;SDS011;64927;48.214;16.378;2023-07-20T02:59:42;7.90;;;4.45;;
76167;SDS011;64927;48.214;16.378;2023-07-20T03:02:07;4.85;;;3.85;;
76167;SDS011;64927;48.214;16.378;2023-07-20T03:04:34;6.28;;;3.83;;
76167;SDS011;64927;48.214;16.378;2023-07-20T03:07:02;9.20;;;4.22;;
76167;SDS011;64927;48.214;16.378;2023-07-20T03:09:29;8.15;;;4.50;;
76167;SDS011;64927;48.214;16.378;2023-07-20T03:11:55;6.90;;;3.92;;
76167;SDS011;64927;48.214;16.378;2023-07-20T03:14:20;6.07;;;4.20;;
76167;SDS011;64927;48.214;16.378;2023-07-20T03:16:46;6.70;;;4.25;;
76167;SDS011;64927;48.214;16.378;2023-07-20T03:19:11;8.55;;;3.97;;
76167;SDS011;64927;48.214;16.378;2023-07-20T03:21:37;8.80;;;3.95;;
76167;SDS011;64927;48.214;16.378;2023-07-20T03:24:06;7.43;;;3.92;;
76167;SDS011;64927;48.214;16.378;2023-07-20T03:26:34;6.35;;;3.97;;
76167;SDS011;64927;48.214;16.378;2023-07-20T03:29:01;9.38;;;4.38;;
76167;SDS011;64927;48.214;16.378;2023-07-20T03:31:27;6.65;;;3.72;;
76167;SDS011;64927;48.214;16.378;2023-07-20T03:33:52;4.43;;;3.25;;
76167;SDS011;64927;48.214;16.378;2023-07-20T03:36:20;7.35;;;3.75;;
76167;SDS011;64927;48.214;16.378;2023-07-20T03:38:46;6.53;;;3.60;;
76167;SDS011;64927;48.214;16.378;2023-07-20T03:41:11;10.13;;;3.88;;
76167;SDS011;64927;48.214;16.378;2023-07-20T03:43:37;8.55;;;3.28;;
76167;SDS011;64927;48.214;16.378;2023-07-20T03:46:03;7.07;;;3.72;;
76167;SDS011;64927;48.214;16.378;2023-07-20T03:48:31;5.95;;;3.33;;
76167;SDS011;64927;48.214;16.378;2023-07-20T03:50:59;6.75;;;3.50;;
76167;SDS011;64927;48.214;16.378;2023-07-20T03:53:25;8.10;;;3.85;;
76167;SDS011;64927;48.214;16.378;2023-07-20T03:55:51;4.45;;;3.60;;
76167;SDS011;64927;48.214;16.378;2023-07-20T03:58:18;5.28;;;3.40;;
76167;SDS011;64927;48.214;16.378;2023-07-20T04:00:50;5.15;;;3.55;;
76167;SDS011;64927;48.214;16.378;2023-07-20T04:03:16;6.15;;;3.40;;
76167;SDS011;64927;48.214;16.378;2023-07-20T04:05:43;7.47;;;4.47;;
76167;SDS011;64927;48.214;16.378;2023-07-20T04:08:09;5.60;;;3.70;;
76167;SDS011;64927;48.214;16.378;2023-07-20T04:10:38;5.78;;;3.63;;
76167;SDS011;64927;48.214;16.378;2023-07-20T04:13:04;5.78;;;3.42;;
76167;SDS011;64927;48.214;16.378;2023-07-20T04:15:30;7.93;;;3.78;;
76167;SDS011;64927;48.214;16.378;2023-07-20T04:17:58;11.43;;;3.92;;
76167;SDS011;64927;48.214;16.378;2023-07-20T04:20:25;7.82;;;3.58;;
76167;SDS011;64927;48.214;16.378;2023-07-20T04:22:51;4.80;;;3.83;;
76167;SDS011;64927;48.214;16.378;2023-07-20T04:25:17;7.00;;;3.83;;
76167;SDS011;64927;48.214;16.378;2023-07-20T04:27:45;6.47;;;4.13;;
76167;SDS011;64927;48.214;16.378;2023-07-20T04:30:11;6.55;;;4.05;;
76167;SDS011;64927;48.214;16.378;2023-07-20T04:32:38;6.47;;;3.95;;
76167;SDS011;64927;48.214;16.378;2023-07-20T04:35:09;6.35;;;3.75;;
76167;SDS011;64927;48.214;16.378;2023-07-20T04:37:34;5.35;;;4.28;;
76167;SDS011;64927;48.214;16.378;2023-07-20T04:40:00;6.13;;;3.70;;
76167;SDS011;64927;48.214;16.378;2023-07-20T04:42:26;7.00;;;4.35;;
76167;SDS011;64927;48.214;16.378;2023-07-20T04:44:52;5.82;;;3.83;;
76167;SDS011;64927;48.214;16.378;2023-07-20T04:47:18;13.88;;;4.85;;
76167;SDS011;64927;48.214;16.378;2023-07-20T04:49:43;6.90;;;3.85;;
76167;SDS011;64927;48.214;16.378;2023-07-20T04:52:09;8.45;;;4.20;;
76167;SDS011;64927;48.214;16.378;2023-07-20T04:54:34;6.65;;;4.13;;
76167;SDS011;64927;48.214;16.378;2023-07-20T04:57:00;8.98;;;4.43;;
76167;SDS011;64927;48.214;16.378;2023-07-20T04:59:28;7.78;;;4.35;;
76167;SDS011;64927;48.214;16.378;2023-07-20T05:01:58;10.88;;;4.32;;
76167;SDS011;64927;48.214;16.378;2023-07-20T05:04:23;5.20;;;3.50;;
76167;SDS011;64927;48.214;16.378;2023-07-20T05:06:51;11.02;;;4.15;;
76167;SDS011;64927;48.214;16.378;2023-07-20T05:09:17;7.63;;;4.20;;
76167;SDS011;64927;48.214;16.378;2023-07-20T05:11:42;7.43;;;4.00;;
76167;SDS011;64927;48.214;16.378;2023-07-20T05:14:10;9.93;;;4.65;;
76167;SDS011;64927;48.214;16.378;2023-07-20T05:16:35;9.10;;;4.78;;
76167;SDS011;64927;48.214;16.378;2023-07-20T05:19:03;7.88;;;4.05;;
76167;SDS011;64927;48.214;16.378;2023-07-20T05:21:29;8.80;;;4.15;;
76167;SDS011;64927;48.214;16.378;2023-07-20T05:23:54;7.72;;;3.72;;
76167;SDS011;64927;48.214;16.378;2023-07-20T05:26:20;7.05;;;4.30;;
76167;SDS011;64927;48.214;16.378;2023-07-20T05:28:45;7.45;;;3.97;;
76167;SDS011;64927;48.214;16.378;2023-07-20T05:31:13;6.80;;;4.15;;
76167;SDS011;64927;48.214;16.378;2023-07-20T05:33:39;6.13;;;3.90;;
76167;SDS011;64927;48.214;16.378;2023-07-20T05:36:04;9.95;;;4.18;;
76167;SDS011;64927;48.214;16.378;2023-07-20T05:38:30;7.32;;;3.72;;
76167;SDS011;64927;48.214;16.378;2023-07-20T05:40:59;8.68;;;4.10;;
76167;SDS011;64927;48.214;16.378;2023-07-20T05:43:26;6.95;;;3.97;;
76167;SDS011;64927;48.214;16.378;2023-07-20T05:45:54;9.35;;;4.40;;
76167;SDS011;64927;48.214;16.378;2023-07-20T05:48:20;5.53;;;3.53;;
76167;SDS011;64927;48.214;16.378;2023-07-20T05:50:46;5.13;;;3.67;;
76167;SDS011;64927;48.214;16.378;2023-07-20T05:53:11;6.00;;;3.70;;
76167;SDS011;64927;48.214;16.378;2023-07-20T05:55:37;12.27;;;3.95;;
76167;SDS011;64927;48.214;16.378;2023-07-20T05:58:04;7.65;;;4.07;;
76167;SDS011;64927;48.214;16.378;2023-07-20T06:00:32;6.57;;;4.13;;
76167;SDS011;64927;48.214;16.378;2023-07-20T06:03:00;8.40;;;3.83;;
76167;SDS011;64927;48.214;16.378;2023-07-20T06:05:25;7.10;;;4.38;;
76167;SDS011;64927;48.214;16.378;2023-07-20T06:07:51;9.27;;;4.30;;
76167;SDS011;64927;48.214;16.378;2023-07-20T06:10:16;7.50;;;3.92;;
76167;SDS011;64927;48.214;16.378;2023-07-20T06:12:45;6.40;;;3.75;;
76167;SDS011;64927;48.214;16.378;2023-07-20T06:15:27;6.47;;;3.60;;
76167;SDS011;64927;48.214;16.378;2023-07-20T06:17:54;5.72;;;3.90;;
76167;SDS011;64927;48.214;16.378;2023-07-20T06:20:21;7.30;;;3.78;;
76167;SDS011;64927;48.214;16.378;2023-07-20T06:22:47;6.82;;;3.88;;
76167;SDS011;64927;48.214;16.378;2023-07-20T06:25:13;7.35;;;3.47;;
76167;SDS011;64927;48.214;16.378;2023-07-20T06:27:38;4.80;;;3.55;;
76167;SDS011;64927;48.214;16.378;2023-07-20T06:30:04;7.70;;;3.80;;
76167;SDS011;64927;48.214;16.378;2023-07-20T06:32:30;6.18;;;3.95;;
76167;SDS011;64927;48.214;16.378;2023-07-20T06:34:56;11.75;;;3.80;;
76167;SDS011;64927;48.214;16.378;2023-07-20T06:37:22;10.60;;;4.00;;
76167;SDS011;64927;48.214;16.378;2023-07-20T06:39:50;8.85;;;3.90;;
76167;SDS011;64927;48.214;16.378;2023-07-20T06:42:15;4.93;;;3.38;;
76167;SDS011;64927;48.214;16.378;2023-07-20T06:44:41;8.07;;;3.38;;
76167;SDS011;64927;48.214;16.378;2023-07-20T06:47:06;4.60;;;3.25;;
76167;SDS011;64927;48.214;16.378;2023-07-20T06:49:32;5.25;;;3.35;;
76167;SDS011;64927;48.214;16.378;2023-07-20T06:51:58;6.10;;;3.58;;
76167;SDS011;64927;48.214;16.378;2023-07-20T06:54:23;8.18;;;3.60;;
76167;SDS011;64927;48.214;16.378;2023-07-20T06:56:49;5.65;;;3.33;;
76167;SDS011;64927;48.214;16.378;2023-07-20T06:59:15;7.00;;;3.85;;
76167;SDS011;64927;48.214;16.378;2023-07-20T07:01:41;8.52;;;3.47;;
76167;SDS011;64927;48.214;16.378;2023-07-20T07:04:06;5.30;;;3.72;;
76167;SDS011;64927;48.214;16.378;2023-07-20T07:06:32;8.68;;;3.90;;
76167;SDS011;64927;48.214;16.378;2023-07-20T07:08:58;5.22;;;3.70;;
76167;SDS011;64927;48.214;16.378;2023-07-20T07:11:23;8.35;;;3.58;;
76167;SDS011;64927;48.214;16.378;2023-07-20T07:13:51;9.43;;;3.78;;
76167;SDS011;64927;48.214;16.378;2023-07-20T07:16:19;6.18;;;4.57;;
76167;SDS011;64927;48.214;16.378;2023-07-20T07:18:45;6.40;;;3.58;;
76167;SDS011;64927;48.214;16.378;2023-07-20T07:21:11;6.40;;;3.40;;
76167;SDS011;64927;48.214;16.378;2023-07-20T07:23:39;5.90;;;3.35;;
76167;SDS011;64927;48.214;16.378;2023-07-20T07:26:04;7.05;;;3.45;;
76167;SDS011;64927;48.214;16.378;2023-07-20T07:28:30;8.80;;;3.97;;
76167;SDS011;64927;48.214;16.378;2023-07-20T07:30:57;6.03;;;3.55;;
76167;SDS011;64927;48.214;16.378;2023-07-20T07:33:22;7.05;;;3.85;;
76167;SDS011;64927;48.214;16.378;2023-07-20T07:35:51;4.82;;;3.15;;
76167;SDS011;64927;48.214;16.378;2023-07-20T07:38:18;9.35;;;4.00;;
76167;SDS011;64927;48.214;16.378;2023-07-20T07:40:46;6.30;;;3.65;;
76167;SDS011;64927;48.214;16.378;2023-07-20T07:43:12;5.38;;;3.60;;
76167;SDS011;64927;48.214;16.378;2023-07-20T07:45:39;7.70;;;3.97;;
76167;SDS011;64927;48.214;16.378;2023-07-20T07:48:05;12.93;;;4.05;;
76167;SDS011;64927;48.214;16.378;2023-07-20T07:50:31;10.13;;;3.60;;
76167;SDS011;64927;48.214;16.378;2023-07-20T07:52:58;9.13;;;3.28;;
76167;SDS011;64927;48.214;16.378;2023-07-20T07:55:24;8.65;;;3.85;;
76167;SDS011;64927;48.214;16.378;2023-07-20T07:57:51;7.55;;;3.38;;
76167;SDS011;64927;48.214;16.378;2023-07-20T08:00:17;5.93;;;3.05;;
76167;SDS011;64927;48.214;16.378;2023-07-20T08:02:44;4.82;;;3.42;;
76167;SDS011;64927;48.214;16.378;2023-07-20T08:05:11;6.45;;;3.63;;
76167;SDS011;64927;48.214;16.378;2023-07-20T08:07:37;7.18;;;3.97;;
76167;SDS011;64927;48.214;16.378;2023-07-20T08:10:05;4.75;;;3.85;;
76167;SDS011;64927;48.214;16.378;2023-07-20T08:12:34;7.78;;;3.60;;
76167;SDS011;64927;48.214;16.378;2023-07-20T08:15:00;4.53;;;3.15;;
76167;SDS011;64927;48.214;16.378;2023-07-20T08:17:25;5.47;;;3.33;;
76167;SDS011;64927;48.214;16.378;2023-07-20T08:19:51;10.40;;;3.30;;
76167;SDS011;64927;48.214;16.378;2023-07-20T08:22:16;9.45;;;3.85;;
76167;SDS011;64927;48.214;16.378;2023-07-20T08:24:42;4.60;;;3.35;;
76167;SDS011;64927;48.214;16.378;2023-07-20T08:27:09;7.72;;;3.38;;
76167;SDS011;64927;48.214;16.378;2023-07-20T08:29:35;5.70;;;3.22;;
76167;SDS011;64927;48.214;16.378;2023-07-20T08:32:02;13.73;;;3.92;;
76167;SDS011;64927;48.214;16.378;2023-07-20T08:34:29;6.95;;;3.78;;
76167;SDS011;64927;48.214;16.378;2023-07-20T08:36:58;3.97;;;3.53;;
76167;SDS011;64927;48.214;16.378;2023-07-20T08:39:23;6.03;;;3.60;;
76167;SDS011;64927;48.214;16.378;2023-07-20T08:41:49;10.48;;;4.30;;
76167;SDS011;64927;48.214;16.378;2023-07-20T08:44:16;9.30;;;3.33;;
76167;SDS011;64927;48.214;16.378;2023-07-20T08:46:42;7.97;;;3.95;;
76167;SDS011;64927;48.214;16.378;2023-07-20T08:49:08;6.78;;;3.70;;
76167;SDS011;64927;48.214;16.378;2023-07-20T08:51:38;10.30;;;4.45;;
76167;SDS011;64927;48.214;16.378;2023-07-20T08:54:06;6.38;;;4.00;;
76167;SDS011;64927;48.214;16.378;2023-07-20T08:56:33;4.57;;;3.55;;
76167;SDS011;64927;48.214;16.378;2023-07-20T08:59:01;5.57;;;3.47;;
76167;SDS011;64927;48.214;16.378;2023-07-20T09:01:28;6.68;;;3.47;;
76167;SDS011;64927;48.214;16.378;2023-07-20T09:03:54;5.07;;;3.75;;
76167;SDS011;64927;48.214;16.378;2023-07-20T09:06:23;9.35;;;3.78;;
76167;SDS011;64927;48.214;16.378;2023-07-20T09:08:48;9.80;;;3.70;;
76167;SDS011;64927;48.214;16.378;2023-07-20T09:11:16;5.57;;;3.70;;
76167;SDS011;64927;48.214;16.378;2023-07-20T09:13:42;8.65;;;3.60;;
76167;SDS011;64927;48.214;16.378;2023-07-20T09:16:13;6.32;;;3.42;;
76167;SDS011;64927;48.214;16.378;2023-07-20T09:18:39;12.82;;;4.70;;
76167;SDS011;64927;48.214;16.378;2023-07-20T09:21:06;8.65;;;3.65;;
76167;SDS011;64927;48.214;16.378;2023-07-20T09:23:35;9.40;;;5.65;;
76167;SDS011;64927;48.214;16.378;2023-07-20T09:26:14;5.68;;;3.17;;
76167;SDS011;64927;48.214;16.378;2023-07-20T09:28:48;4.82;;;3.58;;
76167;SDS011;64927;48.214;16.378;2023-07-20T09:31:16;10.77;;;3.17;;
76167;SDS011;64927;48.214;16.378;2023-07-20T09:33:43;7.35;;;3.53;;
76167;SDS011;64927;48.214;16.378;2023-07-20T09:36:10;10.32;;;3.20;;
76167;SDS011;64927;48.214;16.378;2023-07-20T09:38:41;7.40;;;3.40;;
76167;SDS011;64927;48.214;16.378;2023-07-20T09:41:16;8.93;;;3.53;;
76167;SDS011;64927;48.214;16.378;2023-07-20T09:43:43;5.57;;;3.20;;
76167;SDS011;64927;48.214;16.378;2023-07-20T09:46:10;8.75;;;3.40;;
76167;SDS011;64927;48.214;16.378;2023-07-20T09:48:36;6.78;;;3.45;;
76167;SDS011;64927;48.214;16.378;2023-07-20T09:51:02;6.25;;;3.00;;
76167;SDS011;64927;48.214;16.378;2023-07-20T09:53:30;7.18;;;3.30;;
76167;SDS011;64927;48.214;16.378;2023-07-20T09:55:58;7.25;;;3.22;;
76167;SDS011;64927;48.214;16.378;2023-07-20T09:58:25;8.75;;;3.63;;
76167;SDS011;64927;48.214;16.378;2023-07-20T10:00:52;9.77;;;3.47;;
76167;SDS011;64927;48.214;16.378;2023-07-20T10:03:26;6.95;;;2.95;;
76167;SDS011;64927;48.214;16.378;2023-07-20T10:05:57;6.25;;;3.28;;
76167;SDS011;64927;48.214;16.378;2023-07-20T10:08:28;10.25;;;3.40;;
76167;SDS011;64927;48.214;16.378;2023-07-20T10:10:55;4.00;;;3.05;;
76167;SDS011;64927;48.214;16.378;2023-07-20T10:13:27;5.15;;;3.33;;
76167;SDS011;64927;48.214;16.378;2023-07-20T10:16:07;8.98;;;3.53;;
76167;SDS011;64927;48.214;16.378;2023-07-20T10:18:55;11.48;;;3.92;;
76167;SDS011;64927;48.214;16.378;2023-07-20T10:21:29;6.13;;;3.28;;
76167;SDS011;64927;48.214;16.378;2023-07-20T10:23:58;6.85;;;3.25;;
76167;SDS011;64927;48.214;16.378;2023-07-20T10:26:25;5.85;;;3.05;;
76167;SDS011;64927;48.214;16.378;2023-07-20T10:28:51;9.85;;;3.28;;
76167;SDS011;64927;48.214;16.378;2023-07-20T10:31:18;4.80;;;3.10;;
76167;SDS011;64927;48.214;16.378;2023-07-20T10:33:43;9.00;;;2.83;;
76167;SDS011;64927;48.214;16.378;2023-07-20T10:36:12;3.85;;;2.67;;
76167;SDS011;64927;48.214;16.378;2023-07-20T10:38:38;5.90;;;2.90;;
76167;SDS011;64927;48.214;16.378;2023-07-20T10:41:15;5.97;;;3.13;;
76167;SDS011;64927;48.214;16.378;2023-07-20T10:43:43;7.55;;;2.50;;
76167;SDS011;64927;48.214;16.378;2023-07-20T10:46:10;7.57;;;3.15;;
76167;SDS011;64927;48.214;16.378;2023-07-20T10:48:39;7.60;;;2.67;;
76167;SDS011;64927;48.214;16.378;2023-07-20T10:51:24;10.40;;;2.58;;
76167;SDS011;64927;48.214;16.378;2023-07-20T10:53:50;5.78;;;2.25;;
76167;SDS011;64927;48.214;16.378;2023-07-20T10:56:20;5.55;;;2.90;;
76167;SDS011;64927;48.214;16.378;2023-07-20T10:58:47;4.53;;;2.45;;
76167;SDS011;64927;48.214;16.378;2023-07-20T11:01:16;4.65;;;2.60;;
76167;SDS011;64927;48.214;16.378;2023-07-20T11:03:42;5.22;;;2.78;;
76167;SDS011;64927;48.214;16.378;2023-07-20T11:06:32;6.07;;;2.30;;
76167;SDS011;64927;48.214;16.378;2023-07-20T11:09:07;15.00;;;3.20;;
76167;SDS011;64927;48.214;16.378;2023-07-20T11:11:39;7.05;;;2.83;;
76167;SDS011;64927;48.214;16.378;2023-07-20T11:14:27;4.18;;;2.75;;
76167;SDS011;64927;48.214;16.378;2023-07-20T11:16:53;4.70;;;2.63;;
76167;SDS011;64927;48.214;16.378;2023-07-20T11:19:23;7.13;;;2.85;;
76167;SDS011;64927;48.214;16.378;2023-07-20T11:21:52;4.80;;;2.30;;
76167;SDS011;64927;48.214;16.378;2023-07-20T11:24:18;4.93;;;2.20;;
76167;SDS011;64927;48.214;16.378;2023-07-20T11:26:47;6.80;;;2.25;;
76167;SDS011;64927;48.214;16.378;2023-07-20T11:29:14;3.47;;;1.73;;
76167;SDS011;64927;48.214;16.378;2023-07-20T11:31:42;5.45;;;2.38;;
76167;SDS011;64927;48.214;16.378;2023-07-20T11:34:12;4.55;;;2.22;;
76167;SDS011;64927;48.214;16.378;2023-07-20T11:36:42;4.25;;;2.38;;
76167;SDS011;64927;48.214;16.378;2023-07-20T11:39:09;7.28;;;2.95;;
76167;SDS011;64927;48.214;16.378;2023-07-20T11:41:35;5.68;;;2.50;;
76167;SDS011;64927;48.214;16.378;2023-07-20T11:44:03;10.05;;;2.60;;
76167;SDS011;64927;48.214;16.378;2023-07-20T11:46:29;4.95;;;2.45;;
76167;SDS011;64927;48.214;16.378;2023-07-20T11:48:56;4.72;;;2.28;;
76167;SDS011;64927;48.214;16.378;2023-07-20T11:51:23;7.10;;;2.40;;
76167;SDS011;64927;48.214;16.378;2023-07-20T11:53:49;4.30;;;2.45;;
76167;SDS011;64927;48.214;16.378;2023-07-20T11:56:15;6.35;;;2.55;;
76167;SDS011;64927;48.214;16.378;2023-07-20T11:58:41;6.85;;;2.40;;
76167;SDS011;64927;48.214;16.378;2023-07-20T12:01:13;3.42;;;2.20;;
76167;SDS011;64927;48.214;16.378;2023-07-20T12:03:41;3.92;;;2.30;;
76167;SDS011;64927;48.214;16.378;2023-07-20T12:06:10;6.00;;;2.90;;
76167;SDS011;64927;48.214;16.378;2023-07-20T12:08:39;4.00;;;2.38;;
76167;SDS011;64927;48.214;16.378;2023-07-20T12:11:09;4.85;;;2.58;;
76167;SDS011;64927;48.214;16.378;2023-07-20T12:13:35;5.80;;;2.13;;
76167;SDS011;64927;48.214;16.378;2023-07-20T12:16:26;8.50;;;3.50;;
76167;SDS011;64927;48.214;16.378;2023-07-20T12:19:05;6.18;;;2.60;;
76167;SDS011;64927;48.214;16.378;2023-07-20T12:21:34;13.30;;;5.78;;
76167;SDS011;64927;48.214;16.378;2023-07-20T12:24:02;14.80;;;2.35;;
76167;SDS011;64927;48.214;16.378;2023-07-20T12:26:30;3.88;;;2.17;;
76167;SDS011;64927;48.214;16.378;2023-07-20T12:28:57;5.35;;;2.42;;
76167;SDS011;64927;48.214;16.378;2023-07-20T12:31:26;6.05;;;2.10;;
76167;SDS011;64927;48.214;16.378;2023-07-20T12:33:52;4.93;;;2.20;;
76167;SDS011;64927;48.214;16.378;2023-07-20T12:36:20;2.58;;;1.75;;
76167;SDS011;64927;48.214;16.378;2023-07-20T12:38:46;4.30;;;2.40;;
76167;SDS011;64927;48.214;16.378;2023-07-20T12:41:12;3.28;;;1.75;;
76167;SDS011;64927;48.214;16.378;2023-07-20T12:43:39;3.83;;;1.80;;
76167;SDS011;64927;48.214;16.378;2023-07-20T12:46:08;7.15;;;1.98;;
76167;SDS011;64927;48.214;16.378;2023-07-20T12:48:35;3.42;;;1.90;;
76167;SDS011;64927;48.214;16.378;2023-07-20T12:51:05;7.15;;;1.98;;
76167;SDS011;64927;48.214;16.378;2023-07-20T12:53:31;8.20;;;2.20;;
76167;SDS011;64927;48.214;16.378;2023-07-20T12:55:57;4.25;;;1.92;;
76167;SDS011;64927;48.214;16.378;2023-07-20T12:58:26;3.58;;;1.92;;
76167;SDS011;64927;48.214;16.378;2023-07-20T13:00:54;2.85;;;1.90;;
76167;SDS011;64927;48.214;16.378;2023-07-20T13:03:20;9.38;;;2.25;;
76167;SDS011;64927;48.214;16.378;2023-07-20T13:05:46;11.05;;;2.10;;
76167;SDS011;64927;48.214;16.378;2023-07-20T13:08:12;9.98;;;2.50;;
76167;SDS011;64927;48.214;16.378;2023-07-20T13:10:38;7.50;;;1.80;;
76167;SDS011;64927;48.214;16.378;2023-07-20T13:13:04;4.43;;;1.75;;
76167;SDS011;64927;48.214;16.378;2023-07-20T13:15:31;4.50;;;2.25;;
76167;SDS011;64927;48.214;16.378;2023-07-20T13:18:08;3.30;;;1.65;;
76167;SDS011;64927;48.214;16.378;2023-07-20T13:20:33;3.03;;;1.73;;
76167;SDS011;64927;48.214;16.378;2023-07-20T13:22:59;10.50;;;2.38;;
76167;SDS011;64927;48.214;16.378;2023-07-20T13:25:24;3.60;;;2.10;;
76167;SDS011;64927;48.214;16.378;2023-07-20T13:27:50;3.30;;;1.70;;
76167;SDS011;64927;48.214;16.378;2023-07-20T13:30:18;7.50;;;2.40;;
76167;SDS011;64927;48.214;16.378;2023-07-20T13:32:46;4.07;;;1.77;;
76167;SDS011;64927;48.214;16.378;2023-07-20T13:35:12;3.88;;;1.80;;
76167;SDS011;64927;48.214;16.378;2023-07-20T13:37:41;2.55;;;1.60;;
76167;SDS011;64927;48.214;16.378;2023-07-20T13:40:09;2.15;;;1.55;;
76167;SDS011;64927;48.214;16.378;2023-07-20T13:42:38;4.18;;;2.30;;
76167;SDS011;64927;48.214;16.378;2023-07-20T13:45:05;2.63;;;1.70;;
76167;SDS011;64927;48.214;16.378;2023-07-20T13:47:31;3.30;;;1.90;;
76167;SDS011;64927;48.214;16.378;2023-07-20T13:49:57;4.90;;;2.05;;
76167;SDS011;64927;48.214;16.378;2023-07-20T13:52:22;7.00;;;2.28;;
76167;SDS011;64927;48.214;16.378;2023-07-20T13:54:48;6.07;;;2.28;;
76167;SDS011;64927;48.214;16.378;2023-07-20T13:57:14;2.75;;;2.00;;
76167;SDS011;64927;48.214;16.378;2023-07-20T13:59:43;2.95;;;2.15;;
76167;SDS011;64927;48.214;16.378;2023-07-20T14:02:13;3.75;;;2.03;;
76167;SDS011;64927;48.214;16.378;2023-07-20T14:04:42;4.90;;;1.90;;
76167;SDS011;64927;48.214;16.378;2023-07-20T14:07:10;3.22;;;2.35;;
76167;SDS011;64927;48.214;16.378;2023-07-20T14:09:36;4.88;;;2.58;;
76167;SDS011;64927;48.214;16.378;2023-07-20T14:12:04;4.22;;;2.20;;
76167;SDS011;64927;48.214;16.378;2023-07-20T14:14:30;2.92;;;1.90;;
76167;SDS011;64927;48.214;16.378;2023-07-20T14:16:56;2.60;;;1.95;;
76167;SDS011;64927;48.214;16.378;2023-07-20T14:19:24;6.22;;;2.30;;
76167;SDS011;64927;48.214;16.378;2023-07-20T14:21:50;4.90;;;2.70;;
76167;SDS011;64927;48.214;16.378;2023-07-20T14:24:18;2.45;;;2.20;;
76167;SDS011;64927;48.214;16.378;2023-07-20T14:26:44;3.13;;;1.83;;
76167;SDS011;64927;48.214;16.378;2023-07-20T14:29:09;3.35;;;1.88;;
76167;SDS011;64927;48.214;16.378;2023-07-20T14:31:37;5.10;;;2.00;;
76167;SDS011;64927;48.214;16.378;2023-07-20T14:34:03;8.75;;;2.47;;
76167;SDS011;64927;48.214;16.378;2023-07-20T14:36:33;11.77;;;7.32;;
76167;SDS011;64927;48.214;16.378;2023-07-20T14:38:59;7.82;;;2.47;;
76167;SDS011;64927;48.214;16.378;2023-07-20T14:41:24;4.38;;;2.13;;
76167;SDS011;64927;48.214;16.378;2023-07-20T14:43:51;2.95;;;2.30;;
76167;SDS011;64927;48.214;16.378;2023-07-20T14:46:17;3.42;;;1.98;;